Cannonsburg, Michigan
Current Conditions -  °F | °C
As of 4:11 PM on Monday 24 Nov 2014 (Local Time) from KGRR Reporting Station
Light Snow Light Snow  
Wind Chill: 22°   Ceiling: 1000
Heat Index: 34°   Visibility: 3mi
Dew Point: 34°   Wind: 23mph
Humidity: 100%   Direction: 230°SW
Pressure: 29.35"   Gusts: 32mph
Location:  43.07°N, 85.44°W
Report Text: KGRR 242111Z 23020G28KT 3SM -SN BR BKN010 OVC018 01/01 A2935 RMK AO2 PK WND 23035/2056 P0000 T00110011 $
Loading
Personal Weather Stations






























Interactive Weather Map New forecast layout! Learn more

10-Day Weather Forecast

Advertisements
Track Severe Weather on mobile